Time;durP1;ratioP1;P1;durP2;ratioP2;P2;SDS_P1;SDS_P2;PMS_P1;PMS_P2;Temp;Humidity;BMP_temperature;BMP_pressure;BME280_temperature;BME280_humidity;BME280_pressure;Samples;Min_cycle;Max_cycle;Signal;HPM_P1;HPM_P2
2022/02/08 00:01:01;;;;;;;15.50;4.80;;;;;;;2.90;78.25;100035.27;130442;1268;108678;-81
2022/02/08 00:04:06;;;;;;;15.20;4.40;;;;;;;2.87;78.23;100039.03;130516;1268;108675;-81
2022/02/08 00:07:12;;;;;;;16.30;3.60;;;;;;;2.84;78.38;100045.36;130728;1268;108887;-80
2022/02/08 00:10:18;;;;;;;16.10;4.20;;;;;;;2.83;78.44;100047.77;130631;1268;108655;-80
2022/02/08 00:13:23;;;;;;;16.30;4.00;;;;;;;2.87;78.31;100047.61;130495;1268;109974;-81
2022/02/08 00:16:29;;;;;;;16.60;4.30;;;;;;;2.92;78.41;100053.76;130391;1268;106903;-87
2022/02/08 00:19:35;;;;;;;20.00;4.30;;;;;;;2.92;78.27;100067.23;130373;1268;108925;-85
2022/02/08 00:22:41;;;;;;;16.70;3.60;;;;;;;2.90;78.16;100073.73;130397;1268;107515;-85
2022/02/08 00:25:46;;;;;;;18.60;4.30;;;;;;;2.88;78.31;100078.67;130405;1268;107802;-85
2022/02/08 00:28:51;;;;;;;16.90;4.80;;;;;;;2.85;78.40;100080.23;130295;1268;108848;-83
2022/02/08 00:31:57;;;;;;;19.30;3.90;;;;;;;2.85;78.43;100090.77;130321;1268;108734;-82
2022/02/08 00:35:02;;;;;;;17.40;3.60;;;;;;;2.88;78.46;100096.17;130392;1268;107503;-85
2022/02/08 00:38:09;;;;;;;17.20;4.20;;;;;;;2.95;78.32;100099.41;131577;1268;108692;-83
2022/02/08 00:41:15;;;;;;;21.30;4.60;;;;;;;2.98;78.25;100106.42;130464;1268;109040;-86
2022/02/08 00:44:29;;;;;;;16.10;3.80;;;;;;;2.97;78.40;100107.65;130347;1268;108631;-84
2022/02/08 00:47:39;;;;;;;17.80;3.60;;;;;;;2.97;78.37;100114.55;130330;1268;107696;-85
2022/02/08 00:50:49;;;;;;;11.90;2.90;;;;;;;2.91;78.40;100112.48;130237;1268;236484;-85
2022/02/08 00:53:56;;;;;;;15.20;3.10;;;;;;;2.91;78.48;100117.96;130320;1268;108766;-85
2022/02/08 00:57:02;;;;;;;15.70;4.00;;;;;;;2.93;78.44;100112.38;130401;1268;108783;-85
2022/02/08 01:00:10;;;;;;;11.00;3.00;;;;;;;2.99;78.46;100114.41;130229;1268;107407;-84
2022/02/08 01:03:16;;;;;;;15.90;3.30;;;;;;;3.05;78.48;100118.70;130368;1268;108791;-85
2022/02/08 01:06:22;;;;;;;16.00;4.40;;;;;;;3.05;78.21;100126.09;130314;1268;108650;-84
2022/02/08 01:09:39;;;;;;;14.10;3.00;;;;;;;2.99;78.21;100136.40;130306;1268;108997;-84
2022/02/08 01:12:47;;;;;;;14.90;2.90;;;;;;;2.93;78.43;100141.32;130341;1268;108675;-85
2022/02/08 01:15:54;;;;;;;11.10;3.30;;;;;;;2.94;78.38;100148.14;130348;1268;108715;-85
2022/02/08 01:19:02;;;;;;;16.30;3.20;;;;;;;2.93;78.36;100151.19;130439;1268;108676;-85
2022/02/08 01:22:07;;;;;;;15.00;3.10;;;;;;;2.92;78.33;100146.50;130436;1268;108974;-85
2022/02/08 01:25:19;;;;;;;13.90;2.90;;;;;;;2.93;78.48;100152.24;130342;1268;107698;-86
2022/02/08 01:28:33;;;;;;;13.90;3.50;;;;;;;2.87;78.30;100158.08;130320;1268;108685;-86
2022/02/08 01:31:39;;;;;;;9.80;2.60;;;;;;;2.83;78.50;100160.29;130312;1268;108917;-82
2022/02/08 01:34:57;;;;;;;29.50;11.50;;;;;;;2.84;78.53;100167.80;130333;1268;108737;-82
2022/02/08 01:38:08;;;;;;;20.90;8.30;;;;;;;2.86;78.41;100172.93;130303;1268;108833;-80
2022/02/08 01:41:29;;;;;;;25.40;5.90;;;;;;;2.88;78.37;100175.64;130301;1268;108856;-81
2022/02/08 01:44:41;;;;;;;16.40;3.50;;;;;;;2.85;78.24;100191.09;130320;1268;110176;-82
2022/02/08 01:48:00;;;;;;;118.40;46.70;;;;;;;2.78;78.42;100192.48;130350;1268;108871;-83
2022/02/08 01:51:06;;;;;;;19.10;5.20;;;;;;;2.77;78.57;100195.88;130370;1268;108694;-83
2022/02/08 01:54:11;;;;;;;18.60;6.70;;;;;;;2.78;78.58;100201.23;130311;1268;108878;-84
2022/02/08 01:57:17;;;;;;;24.50;8.10;;;;;;;2.79;78.61;100202.23;130315;1268;108875;-84
2022/02/08 02:00:23;;;;;;;18.70;5.70;;;;;;;2.80;78.69;100203.20;130321;1268;109149;-84
2022/02/08 02:03:28;;;;;;;17.90;4.10;;;;;;;2.79;78.54;100210.15;130335;1268;108826;-87
2022/02/08 02:06:35;;;;;;;30.90;10.50;;;;;;;2.70;78.85;100218.27;130365;1268;107702;-82
2022/02/08 02:09:45;;;;;;;13.70;4.20;;;;;;;2.64;78.87;100219.38;130362;1268;108781;-82
2022/02/08 02:12:56;;;;;;;15.40;4.70;;;;;;;2.63;79.02;100221.40;130353;1268;107651;-83
2022/02/08 02:16:05;;;;;;;17.80;3.90;;;;;;;2.64;78.96;100226.63;130395;1268;107620;-83
2022/02/08 02:19:10;;;;;;;19.50;4.30;;;;;;;2.64;78.95;100231.17;130211;1269;110172;-84
2022/02/08 02:22:18;;;;;;;22.40;8.30;;;;;;;2.66;78.92;100237.20;130345;1268;108808;-82
2022/02/08 02:25:26;;;;;;;14.40;3.30;;;;;;;2.63;78.91;100244.41;130290;1268;108699;-84
2022/02/08 02:28:33;;;;;;;13.40;3.70;;;;;;;2.59;79.01;100245.70;130277;1268;108980;-79
2022/02/08 02:31:38;;;;;;;15.60;4.00;;;;;;;2.59;79.07;100249.81;130171;1269;107628;-81
2022/02/08 02:34:50;;;;;;;20.10;8.20;;;;;;;2.59;79.01;100249.58;130285;1268;108029;-81
2022/02/08 02:37:59;;;;;;;14.80;3.80;;;;;;;2.64;78.99;100250.64;130313;1268;108885;-82
2022/02/08 02:41:07;;;;;;;17.70;3.00;;;;;;;2.66;78.83;100260.39;130254;1268;108966;-81
2022/02/08 02:44:17;;;;;;;13.20;2.90;;;;;;;2.62;78.92;100263.59;130333;1268;108677;-84
2022/02/08 02:47:24;;;;;;;13.50;3.00;;;;;;;2.61;79.09;100270.15;130336;1268;107712;-86
2022/02/08 02:50:30;;;;;;;19.70;4.50;;;;;;;2.61;79.00;100274.77;130449;1268;109126;-85
2022/02/08 02:53:36;;;;;;;15.40;3.30;;;;;;;2.63;79.06;100279.73;130359;1268;107876;-82
2022/02/08 02:56:47;;;;;;;13.80;3.20;;;;;;;2.63;78.98;100277.60;130309;1268;109045;-83
2022/02/08 03:00:02;;;;;;;16.50;3.70;;;;;;;2.64;79.10;100282.64;130243;1268;108682;-81
2022/02/08 03:03:24;;;;;;;11.90;2.70;;;;;;;2.60;78.92;100289.71;130297;1268;108758;-81
2022/02/08 03:20:07;;;;;;;12.40;3.70;;;;;;;2.37;79.30;100310.02;130275;1269;107676;-86
2022/02/08 03:23:14;;;;;;;12.90;4.30;;;;;;;2.34;79.48;100316.19;130243;1270;109013;-83
2022/02/08 03:26:21;;;;;;;13.30;3.00;;;;;;;2.34;79.60;100324.79;130522;1268;108716;-80
2022/02/08 03:29:33;;;;;;;17.00;3.10;;;;;;;2.33;79.56;100324.13;130317;1268;108856;-80
2022/02/08 03:32:38;;;;;;;15.00;3.10;;;;;;;2.31;79.60;100327.23;130495;1268;107728;-78
2022/02/08 03:35:44;;;;;;;12.90;3.00;;;;;;;2.27;79.58;100339.58;130380;1268;108892;-82
2022/02/08 03:39:01;;;;;;;13.30;3.60;;;;;;;2.25;79.62;100345.02;130373;1268;108875;-84
2022/02/08 03:42:17;;;;;;;13.70;2.90;;;;;;;2.27;79.63;100357.35;130395;1269;108677;-83
2022/02/08 03:45:23;;;;;;;12.30;3.50;;;;;;;2.32;79.68;100359.67;130329;1268;108888;-83
2022/02/08 03:48:31;;;;;;;12.70;2.80;;;;;;;2.36;79.57;100367.50;130269;1269;109013;-84
2022/02/08 03:51:49;;;;;;;10.80;2.80;;;;;;;2.40;79.57;100367.97;130367;1268;108941;-80
2022/02/08 03:54:55;;;;;;;12.30;2.90;;;;;;;2.43;79.45;100372.86;130190;1268;108789;-79
2022/02/08 03:58:00;;;;;;;15.20;2.90;;;;;;;2.38;79.66;100383.51;130196;1268;108690;-79
2022/02/08 04:04:47;;;;;;;16.30;3.00;;;;;;;2.33;79.76;100389.41;130114;1268;109265;-75
2022/02/08 04:07:56;;;;;;;12.50;2.70;;;;;;;2.42;79.66;100394.52;130447;1268;108825;-76
2022/02/08 04:11:01;;;;;;;15.80;2.90;;;;;;;2.49;79.70;100400.21;130138;1268;108863;-76
2022/02/08 04:14:23;;;;;;;11.80;2.60;;;;;;;2.53;79.67;100406.30;130181;1268;108669;-75
2022/02/08 04:17:39;;;;;;;8.60;2.20;;;;;;;2.58;79.69;100410.55;130228;1268;108863;-74
2022/02/08 04:34:40;;;;;;;14.00;3.00;;;;;;;2.68;79.67;100427.28;130219;1268;108856;-75
2022/02/08 04:37:59;;;;;;;15.30;3.40;;;;;;;2.67;79.55;100427.50;130182;1268;108744;-75
2022/02/08 04:41:08;;;;;;;15.60;3.20;;;;;;;2.62;79.62;100424.16;130269;1268;108908;-75
2022/02/08 04:44:23;;;;;;;13.10;3.40;;;;;;;2.56;79.58;100428.19;130248;1268;108927;-75
2022/02/08 04:47:33;;;;;;;26.60;9.10;;;;;;;2.48;79.71;100428.67;130251;1268;109062;-76
2022/02/08 04:50:39;;;;;;;13.50;4.00;;;;;;;2.47;79.88;100431.41;130212;1267;109001;-74
2022/02/08 04:53:52;;;;;;;15.50;3.50;;;;;;;2.51;79.74;100440.85;130230;1268;108723;-75
2022/02/08 04:57:08;;;;;;;27.60;10.60;;;;;;;2.49;79.80;100443.77;130140;1267;108667;-76
2022/02/08 05:00:22;;;;;;;22.10;6.80;;;;;;;2.49;79.74;100447.42;130206;1268;108756;-75
2022/02/08 05:34:43;;;;;;;28.50;9.00;;;;;;;2.71;79.28;100478.19;130216;1268;108994;-75
2022/02/08 05:41:44;;;;;;;16.30;4.10;;;;;;;2.73;79.15;100485.23;129891;1271;107857;-76
2022/02/08 05:44:56;;;;;;;83.40;34.20;;;;;;;2.75;78.93;100491.43;130212;1269;108769;-75
2022/02/08 05:48:06;;;;;;;42.10;16.70;;;;;;;2.77;79.27;100493.08;130205;1268;108722;-74
2022/02/08 05:51:16;;;;;;;33.00;11.00;;;;;;;2.82;79.00;100489.77;130277;1268;108992;-75
2022/02/08 05:54:22;;;;;;;56.80;26.10;;;;;;;2.84;79.13;100486.88;130173;1270;108656;-75
2022/02/08 05:57:27;;;;;;;21.40;7.20;;;;;;;2.86;79.24;100495.67;130174;1268;108065;-76
2022/02/08 06:00:33;;;;;;;16.40;4.50;;;;;;;2.89;78.95;100500.25;130243;1268;107773;-75
2022/02/08 06:03:46;;;;;;;29.70;11.80;;;;;;;2.86;78.92;100501.85;130173;1269;108833;-75
2022/02/08 06:06:52;;;;;;;25.90;9.30;;;;;;;2.89;79.12;100505.84;130179;1268;108761;-74
2022/02/08 06:09:57;;;;;;;27.40;11.00;;;;;;;2.92;79.21;100503.73;130141;1268;108774;-76
2022/02/08 06:13:03;;;;;;;28.20;11.20;;;;;;;2.91;78.75;100507.14;130223;1268;107601;-75
2022/02/08 06:16:17;;;;;;;18.00;7.90;;;;;;;2.88;79.07;100511.52;130210;1269;108810;-75
2022/02/08 06:19:23;;;;;;;12.10;4.30;;;;;;;2.90;79.06;100515.32;130201;1268;108579;-74
2022/02/08 06:22:28;;;;;;;15.70;4.50;;;;;;;2.85;78.89;100521.41;130186;1269;108887;-72
2022/02/08 06:25:34;;;;;;;13.40;3.70;;;;;;;2.82;79.14;100518.43;130188;1268;108874;-75
2022/02/08 06:28:40;;;;;;;16.40;4.60;;;;;;;2.83;79.04;100523.97;130226;1269;108873;-74
2022/02/08 06:31:46;;;;;;;36.30;17.00;;;;;;;2.88;78.97;100528.42;130240;1268;109296;-74
2022/02/08 06:34:51;;;;;;;18.60;5.70;;;;;;;2.96;79.06;100526.51;130166;1269;108847;-75
2022/02/08 06:37:59;;;;;;;19.60;6.80;;;;;;;2.98;78.69;100533.92;130239;1269;107331;-75
2022/02/08 06:41:06;;;;;;;14.80;5.00;;;;;;;2.93;78.89;100530.55;130284;1268;108706;-74
2022/02/08 06:44:12;;;;;;;16.20;5.10;;;;;;;2.97;78.89;100533.96;130253;1268;108741;-74
2022/02/08 06:47:17;;;;;;;19.50;6.10;;;;;;;3.01;78.83;100536.39;130262;1270;108657;-74
2022/02/08 06:50:23;;;;;;;17.00;5.40;;;;;;;3.10;78.81;100537.22;130247;1269;106681;-74
2022/02/08 06:53:29;;;;;;;43.30;15.70;;;;;;;3.21;78.73;100541.10;130224;1268;108744;-74
2022/02/08 06:56:34;;;;;;;62.10;23.60;;;;;;;3.24;78.52;100541.38;130395;1268;108698;-75
2022/02/08 06:59:48;;;;;;;19.60;4.80;;;;;;;3.21;78.21;100540.40;130365;1268;108851;-73
2022/02/08 07:02:53;;;;;;;95.60;42.00;;;;;;;3.12;78.38;100536.02;130442;1268;108841;-73
2022/02/08 07:05:59;;;;;;;54.40;22.70;;;;;;;3.10;78.45;100535.10;130359;1269;108884;-74
2022/02/08 07:09:04;;;;;;;166.00;71.50;;;;;;;3.16;78.56;100538.05;130214;1269;109101;-73
2022/02/08 07:12:11;;;;;;;75.90;33.30;;;;;;;3.23;78.70;100538.13;130244;1268;108823;-73
2022/02/08 07:15:18;;;;;;;30.90;10.30;;;;;;;3.31;78.00;100542.40;130354;1268;109121;-72
2022/02/08 07:18:23;;;;;;;35.70;14.60;;;;;;;3.26;77.84;100543.05;130282;1268;108899;-73
2022/02/08 07:21:29;;;;;;;30.00;12.10;;;;;;;3.24;78.10;100547.40;130246;1268;109181;-72
2022/02/08 07:24:34;;;;;;;18.50;4.20;;;;;;;3.22;78.01;100541.23;130288;1268;108602;-75
2022/02/08 07:27:40;;;;;;;29.50;11.50;;;;;;;3.20;77.82;100541.32;130254;1268;108781;-73
2022/02/08 07:30:46;;;;;;;19.50;5.10;;;;;;;3.19;77.96;100539.65;130204;1268;108650;-73
2022/02/08 07:33:57;;;;;;;16.70;4.30;;;;;;;3.18;78.03;100536.76;130253;1268;108690;-75
2022/02/08 07:37:10;;;;;;;17.60;6.40;;;;;;;3.20;77.91;100532.88;130273;1268;108066;-74
2022/02/08 07:40:27;;;;;;;18.10;5.80;;;;;;;3.29;77.63;100538.61;130253;1268;108725;-74
2022/02/08 07:43:33;;;;;;;15.00;3.60;;;;;;;3.32;77.28;100543.52;130278;1268;108552;-74
2022/02/08 07:47:02;;;;;;;16.70;7.20;;;;;;;3.35;77.28;100543.20;130295;1268;109231;-75
2022/02/08 07:50:08;;;;;;;19.80;5.50;;;;;;;3.39;77.66;100538.55;130351;1268;108972;-74
2022/02/08 07:53:15;;;;;;;15.20;4.20;;;;;;;3.41;76.97;100540.65;130281;1268;108738;-74
2022/02/08 07:56:20;;;;;;;17.20;6.10;;;;;;;3.41;77.33;100547.33;130250;1268;108894;-74
2022/02/08 07:59:26;;;;;;;15.50;5.10;;;;;;;3.46;77.12;100549.11;130348;1268;107483;-75
2022/02/08 08:02:31;;;;;;;16.20;5.70;;;;;;;3.51;77.11;100549.52;130364;1268;108954;-74
2022/02/08 08:05:37;;;;;;;17.20;6.30;;;;;;;3.61;77.17;100546.59;130330;1268;108825;-74
2022/02/08 08:08:43;;;;;;;384.00;182.40;;;;;;;3.73;77.23;100543.33;130276;1268;108661;-75
2022/02/08 08:11:51;;;;;;;303.80;127.50;;;;;;;3.84;77.01;100550.13;130392;1268;108673;-74
2022/02/08 08:14:59;;;;;;;120.10;51.60;;;;;;;3.87;76.29;100555.91;130379;1268;108639;-75
2022/02/08 08:18:19;;;;;;;45.00;16.20;;;;;;;3.80;76.34;100562.58;130232;1268;108562;-74
2022/02/08 08:21:24;;;;;;;37.30;12.90;;;;;;;3.79;76.32;100561.92;130240;1268;108648;-75
2022/02/08 08:24:30;;;;;;;76.40;33.70;;;;;;;3.87;76.45;100560.11;130262;1268;108727;-75
2022/02/08 08:27:35;;;;;;;72.80;28.00;;;;;;;3.92;76.06;100568.27;130269;1268;109176;-74
2022/02/08 08:30:41;;;;;;;128.30;49.10;;;;;;;3.85;75.56;100568.54;130330;1268;109197;-75
2022/02/08 08:33:47;;;;;;;227.80;89.80;;;;;;;3.91;75.90;100555.85;130358;1268;108966;-75
2022/02/08 08:36:53;;;;;;;128.70;50.90;;;;;;;4.12;76.47;100552.98;130291;1268;109107;-76
2022/02/08 08:40:04;;;;;;;64.60;28.00;;;;;;;4.41;75.88;100551.22;130348;1268;108885;-76
2022/02/08 08:43:31;;;;;;;27.20;7.50;;;;;;;4.67;75.47;100551.52;130178;1268;108581;-76
2022/02/08 08:50:09;;;;;;;21.60;5.50;;;;;;;4.79;74.50;100543.11;130228;1268;108831;-75
2022/02/08 08:53:14;;;;;;;17.20;4.20;;;;;;;4.77;74.33;100541.16;130195;1268;106767;-77
2022/02/08 08:56:20;;;;;;;16.40;5.50;;;;;;;4.80;74.53;100535.08;130248;1268;108796;-74
2022/02/08 08:59:25;;;;;;;13.40;3.90;;;;;;;4.94;74.54;100535.17;130250;1268;108687;-76
2022/02/08 09:02:31;;;;;;;11.80;3.30;;;;;;;5.04;72.43;100538.88;130312;1268;109165;-75
2022/02/08 09:05:36;;;;;;;15.90;4.50;;;;;;;5.11;73.67;100523.02;130264;1268;108827;-78
2022/02/08 09:08:43;;;;;;;19.90;4.20;;;;;;;5.31;73.68;100523.86;130275;1268;108850;-76
2022/02/08 09:11:58;;;;;;;12.50;3.70;;;;;;;5.39;73.49;100532.62;130312;1268;108908;-77
2022/02/08 09:15:22;;;;;;;18.50;3.60;;;;;;;5.35;72.18;100539.07;130335;1268;108771;-78
2022/02/08 09:18:58;;;;;;;18.00;3.70;;;;;;;5.21;72.94;100541.70;130327;1268;108414;-77
2022/02/08 09:25:47;;;;;;;14.50;4.30;;;;;;;5.23;73.82;100532.20;130308;1268;109124;-75
2022/02/08 09:28:55;;;;;;;14.50;3.40;;;;;;;5.24;72.52;100529.84;130308;1268;108796;-73
2022/02/08 09:32:11;;;;;;;20.40;5.80;;;;;;;5.25;73.40;100526.09;130289;1268;108835;-73
2022/02/08 09:35:18;;;;;;;44.00;21.10;;;;;;;5.44;73.90;100535.25;130306;1268;108595;-70
2022/02/08 09:38:24;;;;;;;30.80;16.20;;;;;;;5.66;74.17;100537.00;130249;1268;108745;-73
2022/02/08 09:41:32;;;;;;;30.00;14.50;;;;;;;5.83;73.52;100531.96;130325;1268;108674;-72
2022/02/08 09:44:38;;;;;;;41.90;22.50;;;;;;;5.94;73.63;100526.56;130316;1268;108287;-72
2022/02/08 09:47:57;;;;;;;27.00;11.80;;;;;;;6.03;71.93;100513.38;130287;1268;108570;-70
2022/02/08 09:51:03;;;;;;;21.20;8.20;;;;;;;6.03;72.87;100502.80;130395;1268;109753;-73
2022/02/08 09:54:08;;;;;;;23.60;10.60;;;;;;;6.14;72.99;100506.67;130087;1268;108362;-73
2022/02/08 09:57:15;;;;;;;16.60;5.10;;;;;;;6.23;72.39;100502.63;130146;1268;108368;-72
2022/02/08 10:00:22;;;;;;;13.50;4.80;;;;;;;6.27;72.43;100495.61;130324;1268;108753;-76
2022/02/08 10:03:27;;;;;;;16.90;4.50;;;;;;;6.27;72.78;100490.65;130184;1268;108641;-73
2022/02/08 10:06:33;;;;;;;17.20;5.40;;;;;;;6.29;72.77;100484.34;130359;1268;108813;-73
2022/02/08 10:09:39;;;;;;;11.80;4.80;;;;;;;6.36;72.79;100473.26;130090;1268;107749;-73
2022/02/08 10:22:54;;;;;;;24.50;10.20;;;;;;;6.44;71.28;100456.14;130001;1268;108996;-74
2022/02/08 10:26:09;;;;;;;23.90;10.60;;;;;;;6.43;71.69;100446.85;130393;1268;107115;-73
2022/02/08 10:29:25;;;;;;;33.90;14.80;;;;;;;6.47;71.97;100442.33;130307;1268;108708;-73
2022/02/08 10:39:24;;;;;;;21.60;10.70;;;;;;;6.41;71.31;100414.19;130315;1268;108835;-75
2022/02/08 10:42:30;;;;;;;16.30;7.10;;;;;;;6.38;70.82;100404.48;130168;1268;107290;-74
2022/02/08 10:45:38;;;;;;;15.70;5.00;;;;;;;6.36;70.97;100395.00;130339;1268;108266;-73
2022/02/08 10:48:43;;;;;;;15.60;5.60;;;;;;;6.36;71.55;100396.90;130151;1268;108999;-72
2022/02/08 10:51:52;;;;;;;17.70;5.80;;;;;;;6.42;71.46;100404.38;130372;1268;108318;-74
2022/02/08 10:55:03;;;;;;;20.20;8.00;;;;;;;6.44;71.05;100397.87;130350;1268;106984;-74
2022/02/08 10:58:18;;;;;;;19.60;7.60;;;;;;;6.44;71.12;100398.20;131159;1268;108640;-73
2022/02/08 11:01:30;;;;;;;21.40;9.60;;;;;;;6.43;70.83;100391.88;130439;1268;108642;-73
2022/02/08 11:04:48;;;;;;;43.40;22.20;;;;;;;6.44;71.18;100384.72;130389;1268;108550;-74
2022/02/08 11:08:14;;;;;;;74.60;38.40;;;;;;;6.46;71.10;100376.14;130429;1268;108764;-74
2022/02/08 11:11:37;;;;;;;124.50;65.00;;;;;;;6.46;70.61;100381.25;130281;1268;108444;-71
2022/02/08 11:15:08;;;;;;;56.70;28.30;;;;;;;6.48;70.68;100375.59;130290;1268;108797;-74
2022/02/08 11:18:34;;;;;;;59.00;33.00;;;;;;;6.46;70.18;100372.23;130388;1268;108613;-74
2022/02/08 11:21:57;;;;;;;26.20;11.80;;;;;;;6.42;70.57;100370.47;130440;1268;108615;-74
2022/02/08 11:25:13;;;;;;;37.40;18.80;;;;;;;6.42;70.57;100361.58;130464;1268;108442;-74
2022/02/08 11:28:25;;;;;;;30.50;16.50;;;;;;;6.42;70.30;100350.85;130327;1268;108638;-74
2022/02/08 11:31:36;;;;;;;19.70;10.80;;;;;;;6.37;70.23;100351.44;130582;1268;109240;-74
2022/02/08 11:45:34;;;;;;;163.70;79.00;;;;;;;6.17;70.11;100348.20;130264;1268;109159;-72
2022/02/08 11:52:31;;;;;;;119.70;55.30;;;;;;;6.21;69.30;100333.27;130257;1268;108652;-73
2022/02/08 11:56:02;;;;;;;74.90;38.40;;;;;;;6.18;68.65;100328.56;130299;1267;108663;-74
2022/02/08 11:59:26;;;;;;;55.60;30.40;;;;;;;6.19;69.88;100328.44;130395;1268;107714;-73
2022/02/08 12:02:56;;;;;;;20.30;10.30;;;;;;;6.24;69.34;100317.95;130374;1268;108784;-73
2022/02/08 12:06:28;;;;;;;50.90;28.50;;;;;;;6.24;69.44;100313.73;130431;1268;108904;-77
2022/02/08 12:09:40;;;;;;;27.00;13.00;;;;;;;6.20;69.29;100297.98;130147;1268;108838;-75
2022/02/08 12:33:16;;;;;;;39.00;15.00;;;;;;;5.73;71.01;100281.39;130409;1268;108792;-78
2022/02/08 12:36:43;;;;;;;41.80;21.40;;;;;;;5.77;70.98;100276.27;130735;1266;108872;-77
2022/02/08 12:57:13;;;;;;;31.90;18.00;;;;;;;5.66;72.02;100255.66;130225;1268;108985;-76
2022/02/08 13:00:29;;;;;;;36.50;22.60;;;;;;;5.53;72.33;100253.88;130438;1268;108735;-76
2022/02/08 13:03:52;;;;;;;30.80;15.50;;;;;;;5.43;72.73;100257.48;130330;1268;110445;-76
2022/02/08 13:14:50;;;;;;;13.20;5.50;;;;;;;5.37;73.19;100238.71;130407;1268;108992;-76
2022/02/08 14:02:17;;;;;;;28.10;12.90;;;;;;;5.25;74.41;100171.05;130313;1268;106725;-77
2022/02/08 14:12:49;;;;;;;16.30;8.60;;;;;;;5.19;74.92;100167.45;130360;1267;107613;-75
2022/02/08 14:16:14;;;;;;;27.10;9.90;;;;;;;5.22;74.99;100164.90;130259;1268;108887;-76
2022/02/08 14:19:35;;;;;;;18.00;8.60;;;;;;;5.28;75.03;100155.42;130364;1268;108862;-76
2022/02/08 14:22:55;;;;;;;16.50;8.00;;;;;;;5.37;74.98;100149.98;130325;1268;108671;-74
2022/02/08 14:29:14;;;;;;;19.00;9.40;;;;;;;5.39;74.90;100150.67;130401;1268;108739;-78
2022/02/08 14:29:45;;;;;;;22.10;11.40;;;;;;;5.37;75.19;100153.85;130265;1268;108835;-78
2022/02/08 14:33:00;;;;;;;18.20;7.70;;;;;;;5.34;75.10;100155.65;130452;1268;108751;-76
2022/02/08 15:00:18;;;;;;;61.70;35.10;;;;;;;5.15;76.59;100147.88;130413;1268;106703;-83
2022/02/08 15:07:11;;;;;;;99.00;48.20;;;;;;;5.18;77.13;100135.81;130650;1268;107382;-80
2022/02/08 15:10:21;;;;;;;71.50;36.70;;;;;;;5.17;76.94;100125.30;130323;1268;108839;-78
2022/02/08 15:13:27;;;;;;;103.10;53.10;;;;;;;5.15;76.89;100125.95;130374;1268;108837;-77
2022/02/08 15:16:35;;;;;;;43.80;21.80;;;;;;;5.13;76.97;100115.73;130332;1268;108733;-77
2022/02/08 15:19:43;;;;;;;53.60;27.60;;;;;;;5.11;77.26;100119.20;130319;1268;107302;-77
2022/02/08 15:22:49;;;;;;;26.10;16.30;;;;;;;5.08;77.47;100122.80;130682;1267;108889;-75
2022/02/08 15:25:56;;;;;;;36.50;20.50;;;;;;;5.06;77.75;100119.82;130480;1268;108811;-78
2022/02/08 15:29:04;;;;;;;39.00;22.10;;;;;;;5.08;77.71;100114.86;130673;1268;108024;-77
2022/02/08 15:32:14;;;;;;;17.90;9.70;;;;;;;5.14;77.75;100110.20;130256;1268;108534;-74
2022/02/08 15:35:20;;;;;;;38.10;21.70;;;;;;;5.17;77.93;100111.86;130375;1268;108972;-74
2022/02/08 15:38:29;;;;;;;22.80;13.20;;;;;;;5.15;78.29;100107.42;130372;1268;108657;-77
2022/02/08 15:41:37;;;;;;;43.50;24.90;;;;;;;5.10;78.34;100102.00;130756;1268;109026;-75
2022/02/08 15:44:47;;;;;;;22.60;14.60;;;;;;;5.06;78.66;100098.63;130264;1268;108572;-73
2022/02/08 15:47:55;;;;;;;17.20;10.50;;;;;;;5.06;78.85;100093.48;130261;1268;108639;-73
2022/02/08 15:51:04;;;;;;;12.30;8.40;;;;;;;5.07;79.10;100091.16;130332;1268;108736;-73
2022/02/08 15:54:19;;;;;;;21.70;14.00;;;;;;;5.09;79.15;100084.80;130340;1268;108122;-73
2022/02/08 15:58:03;;;;;;;20.20;13.40;;;;;;;5.11;79.38;100072.17;130341;1268;106805;-74
2022/02/08 16:01:12;;;;;;;18.70;12.40;;;;;;;5.07;80.02;100074.58;130460;1268;108508;-74
2022/02/08 16:07:50;;;;;;;16.80;10.70;;;;;;;5.09;80.15;100072.29;130105;1268;108798;-74
2022/02/08 16:11:07;;;;;;;37.20;20.60;;;;;;;5.18;80.04;100071.29;130325;1268;107243;-74
2022/02/08 16:14:21;;;;;;;48.60;28.80;;;;;;;5.23;79.81;100073.83;130232;1268;109699;-73
2022/02/08 16:17:34;;;;;;;19.40;10.30;;;;;;;5.26;80.40;100073.91;130318;1268;109703;-78
2022/02/08 16:21:02;;;;;;;17.00;11.20;;;;;;;5.25;80.35;100074.36;130277;1268;108769;-78
2022/02/08 16:24:27;;;;;;;22.70;15.10;;;;;;;5.30;80.45;100075.20;130313;1268;108742;-72
2022/02/08 16:27:45;;;;;;;11.20;7.30;;;;;;;5.36;80.39;100077.52;130256;1268;108621;-72
2022/02/08 16:54:49;;;;;;;12.60;8.00;;;;;;;5.54;81.05;100069.75;130181;1268;108939;-75
2022/02/08 16:58:09;;;;;;;12.60;7.40;;;;;;;5.56;81.27;100069.63;130381;1268;108843;-79
2022/02/08 17:01:17;;;;;;;12.60;8.20;;;;;;;5.56;81.66;100065.70;130283;1268;109646;-76
2022/02/08 17:04:23;;;;;;;183.90;84.40;;;;;;;5.62;81.74;100064.15;130253;1268;109015;-76
2022/02/08 17:07:28;;;;;;;172.10;79.10;;;;;;;5.66;81.74;100060.81;130325;1268;108809;-74
2022/02/08 17:10:37;;;;;;;127.50;54.80;;;;;;;5.69;81.95;100060.24;130472;1267;108709;-75
2022/02/08 17:14:12;;;;;;;97.50;46.70;;;;;;;5.69;82.76;100051.09;130318;1268;108599;-74
2022/02/08 17:17:42;;;;;;;70.20;33.70;;;;;;;5.64;83.09;100052.17;130352;1268;107190;-73
2022/02/08 17:34:41;;;;;;;10.90;8.00;;;;;;;5.71;83.36;100045.41;130315;1268;108036;-75
2022/02/08 17:48:01;;;;;;;10.40;8.10;;;;;;;5.80;84.55;100057.56;130358;1268;108727;-77
2022/02/08 17:51:07;;;;;;;10.80;7.40;;;;;;;5.83;84.04;100059.24;130418;1267;108757;-77
2022/02/08 17:54:12;;;;;;;8.90;6.50;;;;;;;5.90;84.46;100058.33;130259;1268;108684;-78
2022/02/08 17:57:18;;;;;;;9.20;7.00;;;;;;;5.92;84.52;100064.33;130277;1268;107785;-74
2022/02/08 18:00:24;;;;;;;9.90;6.90;;;;;;;5.93;84.31;100068.66;130284;1268;108865;-76
2022/02/08 18:03:29;;;;;;;10.60;6.90;;;;;;;5.92;85.19;100075.80;130419;1268;108644;-75
2022/02/08 18:06:38;;;;;;;10.20;6.80;;;;;;;5.92;85.17;100074.92;130299;1268;108815;-76
2022/02/08 18:09:43;;;;;;;12.00;7.90;;;;;;;5.90;86.02;100082.96;130295;1268;108739;-78
2022/02/08 18:12:51;;;;;;;11.00;8.10;;;;;;;5.85;87.11;100087.28;130267;1268;109035;-75
2022/02/08 18:15:59;;;;;;;8.60;6.50;;;;;;;5.84;86.38;100086.73;130214;1268;108690;-74
2022/02/08 18:19:12;;;;;;;10.00;7.90;;;;;;;5.86;86.37;100085.45;130292;1268;106468;-75
2022/02/08 18:22:29;;;;;;;13.40;10.40;;;;;;;5.90;86.61;100091.28;130267;1268;108572;-74
2022/02/08 18:56:50;;;;;;;14.80;9.50;;;;;;;6.13;88.05;100090.66;130033;1269;108807;-77
2022/02/08 19:03:52;;;;;;;24.70;14.40;;;;;;;6.19;87.58;100095.67;130382;1268;108802;-79
2022/02/08 19:07:17;;;;;;;22.20;13.60;;;;;;;6.23;87.79;100086.85;130328;1268;108883;-81
2022/02/08 19:17:39;;;;;;;;;;;;;;;6.27;88.37;100089.88;129228;1280;108758;-78
2022/02/08 19:21:06;;;;;;;13.30;8.00;;;;;;;6.29;88.31;100098.00;129237;1280;108737;-81
2022/02/08 19:24:12;;;;;;;15.00;9.40;;;;;;;6.31;88.05;100099.10;129241;1280;108778;-78
2022/02/08 19:27:18;;;;;;;13.20;8.20;;;;;;;6.37;88.82;100101.91;129201;1279;265990;-80
2022/02/08 19:30:24;;;;;;;14.70;10.40;;;;;;;6.42;88.64;100104.64;130094;1279;108805;-80
2022/02/08 19:33:30;;;;;;;22.00;13.70;;;;;;;6.41;89.36;100116.08;130517;1278;108659;-81
2022/02/08 19:36:35;;;;;;;12.90;9.40;;;;;;;6.40;88.77;100114.03;130867;1279;108671;-80
2022/02/08 19:39:43;;;;;;;10.00;7.40;;;;;;;6.45;89.18;100119.29;129552;1278;108650;-81
2022/02/08 19:42:48;;;;;;;13.30;9.40;;;;;;;6.46;89.37;100127.10;129545;1278;108850;-80
2022/02/08 19:45:54;;;;;;;12.60;9.40;;;;;;;6.44;90.17;100137.20;129565;1277;108598;-81